sensor_id;sensor_type;location;lat;lon;timestamp;pressure;altitude;pressure_sealevel;temperature;humidity
18988;BME280;5494;51.796;10.952;2023-05-24T00:00:30;99408.78;;;7.65;100.00
18988;BME280;5494;51.796;10.952;2023-05-24T00:02:58;99410.16;;;7.49;100.00
18988;BME280;5494;51.796;10.952;2023-05-24T00:05:28;99410.59;;;7.62;100.00
18988;BME280;5494;51.796;10.952;2023-05-24T00:07:57;99413.16;;;7.63;100.00
18988;BME280;5494;51.796;10.952;2023-05-24T00:10:25;99410.72;;;7.59;100.00
18988;BME280;5494;51.796;10.952;2023-05-24T00:12:54;99414.84;;;7.64;100.00
18988;BME280;5494;51.796;10.952;2023-05-24T00:15:22;99414.66;;;7.70;100.00
18988;BME280;5494;51.796;10.952;2023-05-24T00:17:51;99406.22;;;7.64;100.00
18988;BME280;5494;51.796;10.952;2023-05-24T00:20:19;99414.94;;;7.61;100.00
18988;BME280;5494;51.796;10.952;2023-05-24T00:22:47;99426.09;;;7.63;100.00
18988;BME280;5494;51.796;10.952;2023-05-24T00:25:16;99418.25;;;7.66;100.00
18988;BME280;5494;51.796;10.952;2023-05-24T00:27:44;99408.09;;;7.60;100.00
18988;BME280;5494;51.796;10.952;2023-05-24T00:30:12;99413.34;;;7.57;100.00
18988;BME280;5494;51.796;10.952;2023-05-24T00:32:40;99414.22;;;7.56;100.00
18988;BME280;5494;51.796;10.952;2023-05-24T00:35:09;99411.56;;;7.59;100.00
18988;BME280;5494;51.796;10.952;2023-05-24T00:37:38;99418.25;;;7.66;100.00
18988;BME280;5494;51.796;10.952;2023-05-24T00:40:13;99414.03;;;7.62;100.00
18988;BME280;5494;51.796;10.952;2023-05-24T00:42:42;99409.19;;;7.53;100.00
18988;BME280;5494;51.796;10.952;2023-05-24T00:45:10;99413.53;;;7.51;100.00
18988;BME280;5494;51.796;10.952;2023-05-24T00:47:39;99398.81;;;7.53;100.00
18988;BME280;5494;51.796;10.952;2023-05-24T00:50:10;99406.47;;;7.56;100.00
18988;BME280;5494;51.796;10.952;2023-05-24T00:52:40;99398.72;;;7.56;100.00
18988;BME280;5494;51.796;10.952;2023-05-24T00:55:11;99404.84;;;7.54;100.00
18988;BME280;5494;51.796;10.952;2023-05-24T00:57:39;99403.88;;;7.56;100.00
18988;BME280;5494;51.796;10.952;2023-05-24T01:00:09;99416.94;;;7.53;100.00
18988;BME280;5494;51.796;10.952;2023-05-24T01:02:38;99414.63;;;7.44;100.00
18988;BME280;5494;51.796;10.952;2023-05-24T01:05:09;99406.88;;;7.44;100.00
18988;BME280;5494;51.796;10.952;2023-05-24T01:07:53;99406.16;;;7.39;100.00
18988;BME280;5494;51.796;10.952;2023-05-24T01:10:34;99406.88;;;7.44;100.00
18988;BME280;5494;51.796;10.952;2023-05-24T01:13:18;99412.22;;;7.38;100.00
18988;BME280;5494;51.796;10.952;2023-05-24T01:16:00;99410.53;;;7.37;100.00
18988;BME280;5494;51.796;10.952;2023-05-24T01:18:37;99417.44;;;7.36;100.00
18988;BME280;5494;51.796;10.952;2023-05-24T01:21:30;99410.72;;;7.31;100.00
18988;BME280;5494;51.796;10.952;2023-05-24T01:24:17;99416.63;;;7.34;100.00
18988;BME280;5494;51.796;10.952;2023-05-24T01:27:06;99414.94;;;7.33;100.00
18988;BME280;5494;51.796;10.952;2023-05-24T01:29:35;99402.09;;;7.32;100.00
18988;BME280;5494;51.796;10.952;2023-05-24T01:32:04;99414.16;;;7.31;100.00
18988;BME280;5494;51.796;10.952;2023-05-24T01:34:33;99411.88;;;7.21;100.00
18988;BME280;5494;51.796;10.952;2023-05-24T01:37:01;99405.69;;;7.26;100.00
18988;BME280;5494;51.796;10.952;2023-05-24T01:39:31;99410.19;;;7.20;100.00
18988;BME280;5494;51.796;10.952;2023-05-24T01:42:08;99407.38;;;7.27;100.00
18988;BME280;5494;51.796;10.952;2023-05-24T01:44:42;99403.09;;;7.26;100.00
18988;BME280;5494;51.796;10.952;2023-05-24T01:47:27;99391.13;;;7.24;100.00
18988;BME280;5494;51.796;10.952;2023-05-24T01:50:06;99398.91;;;7.22;100.00
18988;BME280;5494;51.796;10.952;2023-05-24T01:52:40;99385.00;;;7.26;100.00
18988;BME280;5494;51.796;10.952;2023-05-24T01:55:14;99391.09;;;7.25;100.00
18988;BME280;5494;51.796;10.952;2023-05-24T01:57:47;99380.00;;;7.20;100.00
18988;BME280;5494;51.796;10.952;2023-05-24T02:00:19;99388.81;;;7.15;100.00
18988;BME280;5494;51.796;10.952;2023-05-24T02:02:47;99376.69;;;7.17;100.00
18988;BME280;5494;51.796;10.952;2023-05-24T02:05:16;99388.63;;;7.21;100.00
18988;BME280;5494;51.796;10.952;2023-05-24T02:07:44;99390.47;;;7.17;100.00
18988;BME280;5494;51.796;10.952;2023-05-24T02:10:12;99388.63;;;7.21;100.00
18988;BME280;5494;51.796;10.952;2023-05-24T02:12:40;99383.56;;;7.18;100.00
18988;BME280;5494;51.796;10.952;2023-05-24T02:15:11;99389.00;;;7.08;100.00
18988;BME280;5494;51.796;10.952;2023-05-24T02:17:41;99370.97;;;7.05;100.00
18988;BME280;5494;51.796;10.952;2023-05-24T02:20:10;99389.03;;;7.07;100.00
18988;BME280;5494;51.796;10.952;2023-05-24T02:22:39;99388.16;;;7.08;100.00
18988;BME280;5494;51.796;10.952;2023-05-24T02:25:08;99386.44;;;7.07;100.00
18988;BME280;5494;51.796;10.952;2023-05-24T02:27:36;99390.97;;;7.00;100.00
18988;BME280;5494;51.796;10.952;2023-05-24T02:30:06;99384.28;;;6.93;100.00
18988;BME280;5494;51.796;10.952;2023-05-24T02:32:36;99386.59;;;7.02;100.00
18988;BME280;5494;51.796;10.952;2023-05-24T02:35:04;99379.59;;;7.06;100.00
18988;BME280;5494;51.796;10.952;2023-05-24T02:37:34;99385.78;;;7.00;100.00
18988;BME280;5494;51.796;10.952;2023-05-24T02:40:02;99389.44;;;6.93;100.00
18988;BME280;5494;51.796;10.952;2023-05-24T02:42:30;99386.59;;;7.02;100.00
18988;BME280;5494;51.796;10.952;2023-05-24T02:44:58;99388.41;;;6.99;100.00
18988;BME280;5494;51.796;10.952;2023-05-24T02:47:26;99394.59;;;6.93;100.00
18988;BME280;5494;51.796;10.952;2023-05-24T02:49:56;99394.38;;;7.01;100.00
18988;BME280;5494;51.796;10.952;2023-05-24T02:52:24;99394.44;;;6.99;100.00
18988;BME280;5494;51.796;10.952;2023-05-24T02:54:52;99390.28;;;6.94;100.00
18988;BME280;5494;51.796;10.952;2023-05-24T02:57:20;99395.28;;;7.00;100.00
18988;BME280;5494;51.796;10.952;2023-05-24T02:59:49;99396.22;;;6.97;100.00
18988;BME280;5494;51.796;10.952;2023-05-24T03:02:18;99392.84;;;6.95;100.00
18988;BME280;5494;51.796;10.952;2023-05-24T03:04:47;99389.22;;;7.01;100.00
18988;BME280;5494;51.796;10.952;2023-05-24T03:07:17;99399.34;;;7.08;100.00
18988;BME280;5494;51.796;10.952;2023-05-24T03:09:45;99394.34;;;7.02;100.00
18988;BME280;5494;51.796;10.952;2023-05-24T03:12:13;99401.22;;;7.03;100.00
18988;BME280;5494;51.796;10.952;2023-05-24T03:14:41;99400.66;;;6.92;100.00
18988;BME280;5494;51.796;10.952;2023-05-24T03:17:10;99400.06;;;6.84;100.00
18988;BME280;5494;51.796;10.952;2023-05-24T03:19:38;99410.81;;;6.98;100.00
18988;BME280;5494;51.796;10.952;2023-05-24T03:22:06;99417.81;;;6.95;100.00
18988;BME280;5494;51.796;10.952;2023-05-24T03:24:36;99416.13;;;6.94;100.00
18988;BME280;5494;51.796;10.952;2023-05-24T03:27:05;99414.03;;;7.06;100.00
18988;BME280;5494;51.796;10.952;2023-05-24T03:29:33;99411.22;;;7.14;100.00
18988;BME280;5494;51.796;10.952;2023-05-24T03:32:01;99416.88;;;7.27;100.00
18988;BME280;5494;51.796;10.952;2023-05-24T03:34:29;99423.03;;;7.50;100.00
18988;BME280;5494;51.796;10.952;2023-05-24T03:36:57;99415.72;;;7.63;100.00
18988;BME280;5494;51.796;10.952;2023-05-24T03:39:26;99409.75;;;7.61;100.00
18988;BME280;5494;51.796;10.952;2023-05-24T03:42:01;99431.25;;;7.63;100.00
18988;BME280;5494;51.796;10.952;2023-05-24T03:44:30;99423.94;;;7.76;100.00
18988;BME280;5494;51.796;10.952;2023-05-24T03:46:58;99427.91;;;7.87;100.00
18988;BME280;5494;51.796;10.952;2023-05-24T03:49:27;99433.34;;;8.05;100.00
18988;BME280;5494;51.796;10.952;2023-05-24T03:51:57;99427.19;;;8.09;100.00
18988;BME280;5494;51.796;10.952;2023-05-24T03:54:26;99428.78;;;8.13;100.00
18988;BME280;5494;51.796;10.952;2023-05-24T03:56:54;99420.44;;;8.29;99.75
18988;BME280;5494;51.796;10.952;2023-05-24T03:59:24;99430.38;;;8.43;99.19
18988;BME280;5494;51.796;10.952;2023-05-24T04:01:53;99428.22;;;8.54;97.40
18988;BME280;5494;51.796;10.952;2023-05-24T04:04:22;99426.00;;;8.68;95.08
18988;BME280;5494;51.796;10.952;2023-05-24T04:06:50;99422.47;;;8.71;95.23
18988;BME280;5494;51.796;10.952;2023-05-24T04:09:21;99423.13;;;8.99;92.41
18988;BME280;5494;51.796;10.952;2023-05-24T04:11:49;99423.47;;;8.90;92.58
18988;BME280;5494;51.796;10.952;2023-05-24T04:14:17;99418.81;;;9.22;89.77
18988;BME280;5494;51.796;10.952;2023-05-24T04:16:47;99423.00;;;9.26;88.93
18988;BME280;5494;51.796;10.952;2023-05-24T04:19:15;99418.03;;;9.20;90.11
18988;BME280;5494;51.796;10.952;2023-05-24T04:21:44;99431.94;;;9.19;91.25
18988;BME280;5494;51.796;10.952;2023-05-24T04:24:12;99423.69;;;9.53;90.40
18988;BME280;5494;51.796;10.952;2023-05-24T04:26:42;99420.25;;;9.52;89.99
18988;BME280;5494;51.796;10.952;2023-05-24T04:29:10;99422.03;;;9.72;89.49
18988;BME280;5494;51.796;10.952;2023-05-24T04:31:39;99418.81;;;10.09;88.78
18988;BME280;5494;51.796;10.952;2023-05-24T04:34:10;99411.13;;;10.66;85.28
18988;BME280;5494;51.796;10.952;2023-05-24T04:36:43;99419.53;;;10.92;83.12
18988;BME280;5494;51.796;10.952;2023-05-24T04:39:11;99422.72;;;10.98;83.16
18988;BME280;5494;51.796;10.952;2023-05-24T04:41:39;99421.88;;;10.98;82.51
18988;BME280;5494;51.796;10.952;2023-05-24T04:44:07;99423.63;;;10.97;83.64
18988;BME280;5494;51.796;10.952;2023-05-24T04:46:35;99426.28;;;10.96;85.16
18988;BME280;5494;51.796;10.952;2023-05-24T04:49:03;99416.78;;;10.95;84.70
18988;BME280;5494;51.796;10.952;2023-05-24T04:51:35;99423.00;;;10.72;86.69
18988;BME280;5494;51.796;10.952;2023-05-24T04:54:04;99417.38;;;10.62;88.60
18988;BME280;5494;51.796;10.952;2023-05-24T04:56:35;99418.41;;;10.58;90.05
18988;BME280;5494;51.796;10.952;2023-05-24T04:59:04;99420.41;;;10.72;89.46
18988;BME280;5494;51.796;10.952;2023-05-24T05:01:33;99424.06;;;10.68;89.94
18988;BME280;5494;51.796;10.952;2023-05-24T05:04:01;99422.13;;;10.53;90.14
18988;BME280;5494;51.796;10.952;2023-05-24T05:06:31;99420.69;;;10.25;92.71
18988;BME280;5494;51.796;10.952;2023-05-24T05:09:02;99422.34;;;10.28;94.24
18988;BME280;5494;51.796;10.952;2023-05-24T05:11:30;99421.88;;;10.39;93.53
18988;BME280;5494;51.796;10.952;2023-05-24T05:13:58;99420.66;;;10.66;92.57
18988;BME280;5494;51.796;10.952;2023-05-24T05:16:26;99412.59;;;10.92;89.71
18988;BME280;5494;51.796;10.952;2023-05-24T05:18:54;99421.56;;;11.04;88.07
18988;BME280;5494;51.796;10.952;2023-05-24T05:21:22;99421.84;;;11.35;86.28
18988;BME280;5494;51.796;10.952;2023-05-24T05:23:50;99427.34;;;11.84;83.37
18988;BME280;5494;51.796;10.952;2023-05-24T05:26:19;99422.53;;;12.45;78.95
18988;BME280;5494;51.796;10.952;2023-05-24T05:28:48;99422.03;;;12.72;76.06
18988;BME280;5494;51.796;10.952;2023-05-24T05:31:16;99416.63;;;13.08;72.99
18988;BME280;5494;51.796;10.952;2023-05-24T05:33:44;99415.41;;;13.62;70.70
18988;BME280;5494;51.796;10.952;2023-05-24T05:36:12;99414.69;;;14.19;68.78
18988;BME280;5494;51.796;10.952;2023-05-24T05:38:40;99402.41;;;15.35;61.75
18988;BME280;5494;51.796;10.952;2023-05-24T05:41:08;99400.88;;;15.99;58.05
18988;BME280;5494;51.796;10.952;2023-05-24T05:43:38;99404.78;;;16.71;53.78
18988;BME280;5494;51.796;10.952;2023-05-24T05:46:06;99406.69;;;17.91;48.40
18988;BME280;5494;51.796;10.952;2023-05-24T05:48:34;99401.25;;;18.16;46.06
18988;BME280;5494;51.796;10.952;2023-05-24T05:51:02;99406.09;;;17.14;47.55
18988;BME280;5494;51.796;10.952;2023-05-24T05:53:32;99406.09;;;17.14;48.94
18988;BME280;5494;51.796;10.952;2023-05-24T05:56:00;99410.34;;;16.66;50.35
18988;BME280;5494;51.796;10.952;2023-05-24T05:58:28;99407.72;;;16.14;52.94
18988;BME280;5494;51.796;10.952;2023-05-24T06:00:58;99411.53;;;16.23;53.17
18988;BME280;5494;51.796;10.952;2023-05-24T06:03:26;99417.13;;;16.56;52.54
18988;BME280;5494;51.796;10.952;2023-05-24T06:05:54;99416.94;;;16.59;50.95
18988;BME280;5494;51.796;10.952;2023-05-24T06:08:22;99426.25;;;16.50;51.69
18988;BME280;5494;51.796;10.952;2023-05-24T06:10:50;99430.53;;;16.39;51.98
18988;BME280;5494;51.796;10.952;2023-05-24T06:13:18;99434.00;;;16.39;53.43
18988;BME280;5494;51.796;10.952;2023-05-24T06:15:47;99436.53;;;16.53;51.28
18988;BME280;5494;51.796;10.952;2023-05-24T06:18:17;99446.09;;;16.02;52.27
18988;BME280;5494;51.796;10.952;2023-05-24T06:20:45;99448.47;;;15.66;53.46
18988;BME280;5494;51.796;10.952;2023-05-24T06:23:13;99456.22;;;15.26;56.82
18988;BME280;5494;51.796;10.952;2023-05-24T06:25:41;99456.47;;;15.22;55.73
18988;BME280;5494;51.796;10.952;2023-05-24T06:28:10;99451.69;;;15.57;55.38
18988;BME280;5494;51.796;10.952;2023-05-24T06:30:37;99463.94;;;16.37;54.01
18988;BME280;5494;51.796;10.952;2023-05-24T06:33:06;99460.53;;;16.62;52.48
18988;BME280;5494;51.796;10.952;2023-05-24T06:35:35;99461.78;;;17.07;51.33
18988;BME280;5494;51.796;10.952;2023-05-24T06:38:03;99453.38;;;17.51;50.61
18988;BME280;5494;51.796;10.952;2023-05-24T06:40:31;99457.25;;;17.58;49.53
18988;BME280;5494;51.796;10.952;2023-05-24T06:42:59;99463.84;;;17.40;49.05
18988;BME280;5494;51.796;10.952;2023-05-24T06:45:28;99457.50;;;17.55;48.46
18988;BME280;5494;51.796;10.952;2023-05-24T06:47:57;99455.75;;;17.79;47.62
18988;BME280;5494;51.796;10.952;2023-05-24T06:50:26;99460.47;;;18.10;46.73
18988;BME280;5494;51.796;10.952;2023-05-24T06:52:55;99465.41;;;18.61;45.21
18988;BME280;5494;51.796;10.952;2023-05-24T06:55:24;99459.25;;;19.40;43.88
18988;BME280;5494;51.796;10.952;2023-05-24T06:57:52;99465.22;;;19.76;41.98
18988;BME280;5494;51.796;10.952;2023-05-24T07:00:20;99474.28;;;19.94;41.36
18988;BME280;5494;51.796;10.952;2023-05-24T07:02:48;99474.31;;;20.26;40.63
18988;BME280;5494;51.796;10.952;2023-05-24T07:05:17;99476.69;;;19.97;41.29
18988;BME280;5494;51.796;10.952;2023-05-24T07:07:45;99476.16;;;19.26;43.21
18988;BME280;5494;51.796;10.952;2023-05-24T07:10:15;99468.47;;;19.23;41.81
18988;BME280;5494;51.796;10.952;2023-05-24T07:12:43;99480.63;;;18.58;44.34
18988;BME280;5494;51.796;10.952;2023-05-24T07:15:11;99475.78;;;19.31;42.93
18988;BME280;5494;51.796;10.952;2023-05-24T07:17:39;99472.56;;;19.61;41.53
18988;BME280;5494;51.796;10.952;2023-05-24T07:20:09;99471.34;;;19.76;40.50
18988;BME280;5494;51.796;10.952;2023-05-24T07:22:40;99478.78;;;19.26;41.90
18988;BME280;5494;51.796;10.952;2023-05-24T07:25:09;99476.25;;;18.92;42.19
18988;BME280;5494;51.796;10.952;2023-05-24T07:27:39;99482.94;;;18.38;43.38
18988;BME280;5494;51.796;10.952;2023-05-24T07:30:08;99491.94;;;17.26;46.06
18988;BME280;5494;51.796;10.952;2023-05-24T07:32:56;99499.13;;;16.60;48.36
18988;BME280;5494;51.796;10.952;2023-05-24T07:35:24;99495.88;;;16.17;49.79
18988;BME280;5494;51.796;10.952;2023-05-24T07:37:52;99498.28;;;15.66;52.16
18988;BME280;5494;51.796;10.952;2023-05-24T07:40:20;99494.06;;;15.49;54.24
18988;BME280;5494;51.796;10.952;2023-05-24T07:42:50;99500.16;;;15.35;55.75
18988;BME280;5494;51.796;10.952;2023-05-24T07:45:18;99499.19;;;14.80;56.94
18988;BME280;5494;51.796;10.952;2023-05-24T07:47:46;99502.50;;;14.83;57.92
18988;BME280;5494;51.796;10.952;2023-05-24T07:50:14;99505.84;;;14.71;57.83
18988;BME280;5494;51.796;10.952;2023-05-24T07:52:42;99513.25;;;14.49;57.93
18988;BME280;5494;51.796;10.952;2023-05-24T07:55:11;99510.72;;;14.77;57.37
18988;BME280;5494;51.796;10.952;2023-05-24T07:57:40;99509.44;;;14.98;57.74
18988;BME280;5494;51.796;10.952;2023-05-24T08:00:11;99503.09;;;15.86;55.07
18988;BME280;5494;51.796;10.952;2023-05-24T08:02:41;99499.88;;;16.22;52.21
18988;BME280;5494;51.796;10.952;2023-05-24T08:05:11;99498.28;;;16.20;52.59
18988;BME280;5494;51.796;10.952;2023-05-24T08:07:39;99496.97;;;16.39;51.38
18988;BME280;5494;51.796;10.952;2023-05-24T08:10:09;99494.84;;;16.59;50.58
18988;BME280;5494;51.796;10.952;2023-05-24T08:12:39;99495.91;;;16.81;50.19
18988;BME280;5494;51.796;10.952;2023-05-24T08:15:09;99491.63;;;16.93;48.84
18988;BME280;5494;51.796;10.952;2023-05-24T08:17:38;99485.47;;;17.43;47.83
18988;BME280;5494;51.796;10.952;2023-05-24T08:20:07;99493.09;;;18.08;46.71
18988;BME280;5494;51.796;10.952;2023-05-24T08:22:39;99488.31;;;18.13;47.01
18988;BME280;5494;51.796;10.952;2023-05-24T08:25:08;99491.06;;;18.81;43.60
18988;BME280;5494;51.796;10.952;2023-05-24T08:27:36;99489.13;;;19.63;41.99
18988;BME280;5494;51.796;10.952;2023-05-24T08:30:09;99498.53;;;18.18;43.68
18988;BME280;5494;51.796;10.952;2023-05-24T08:32:39;99503.41;;;17.00;47.42
18988;BME280;5494;51.796;10.952;2023-05-24T08:35:07;99508.84;;;16.72;48.88
18988;BME280;5494;51.796;10.952;2023-05-24T08:37:45;99499.09;;;17.74;46.78
18988;BME280;5494;51.796;10.952;2023-05-24T08:40:16;99501.44;;;17.53;45.99
18988;BME280;5494;51.796;10.952;2023-05-24T08:42:44;99505.38;;;17.35;46.52
18988;BME280;5494;51.796;10.952;2023-05-24T08:45:14;99503.38;;;16.87;48.48
18988;BME280;5494;51.796;10.952;2023-05-24T08:47:45;99516.63;;;16.46;49.49
18988;BME280;5494;51.796;10.952;2023-05-24T08:50:14;99512.25;;;16.20;50.13
18988;BME280;5494;51.796;10.952;2023-05-24T08:52:44;99526.16;;;15.81;51.42
18988;BME280;5494;51.796;10.952;2023-05-24T08:55:14;99533.03;;;15.69;51.17
18988;BME280;5494;51.796;10.952;2023-05-24T08:57:44;99532.63;;;15.75;52.19
18988;BME280;5494;51.796;10.952;2023-05-24T09:00:15;99538.38;;;15.95;52.79
18988;BME280;5494;51.796;10.952;2023-05-24T09:02:45;99531.84;;;16.41;51.18
18988;BME280;5494;51.796;10.952;2023-05-24T09:05:15;99525.72;;;16.68;50.87
18988;BME280;5494;51.796;10.952;2023-05-24T09:07:45;99525.38;;;16.99;48.52
18988;BME280;5494;51.796;10.952;2023-05-24T09:10:13;99527.75;;;17.53;47.21
18988;BME280;5494;51.796;10.952;2023-05-24T09:12:46;99533.13;;;16.48;47.51
18988;BME280;5494;51.796;10.952;2023-05-24T09:15:18;99533.63;;;16.41;48.36
18988;BME280;5494;51.796;10.952;2023-05-24T09:17:46;99523.56;;;16.87;48.28
18988;BME280;5494;51.796;10.952;2023-05-24T09:20:14;99517.28;;;17.27;47.95
18988;BME280;5494;51.796;10.952;2023-05-24T09:22:44;99511.75;;;17.56;45.43
18988;BME280;5494;51.796;10.952;2023-05-24T09:25:13;99519.53;;;17.45;45.62
18988;BME280;5494;51.796;10.952;2023-05-24T09:27:45;99520.72;;;17.41;46.33
18988;BME280;5494;51.796;10.952;2023-05-24T09:30:17;99523.34;;;17.41;47.13
18988;BME280;5494;51.796;10.952;2023-05-24T09:32:56;99517.16;;;17.16;48.46
18988;BME280;5494;51.796;10.952;2023-05-24T09:35:25;99522.50;;;16.89;49.12
18988;BME280;5494;51.796;10.952;2023-05-24T09:37:54;99521.88;;;17.11;50.46
18988;BME280;5494;51.796;10.952;2023-05-24T09:40:27;99522.72;;;17.12;49.73
18988;BME280;5494;51.796;10.952;2023-05-24T09:43:04;99524.72;;;16.96;50.06
18988;BME280;5494;51.796;10.952;2023-05-24T09:45:40;99518.16;;;15.97;50.41
18988;BME280;5494;51.796;10.952;2023-05-24T09:48:10;99522.06;;;16.31;51.23
18988;BME280;5494;51.796;10.952;2023-05-24T09:50:39;99517.72;;;15.90;52.40
18988;BME280;5494;51.796;10.952;2023-05-24T09:53:07;99521.41;;;15.73;52.79
18988;BME280;5494;51.796;10.952;2023-05-24T09:55:36;99527.84;;;15.82;53.00
18988;BME280;5494;51.796;10.952;2023-05-24T09:58:06;99531.22;;;15.70;53.17
18988;BME280;5494;51.796;10.952;2023-05-24T10:00:39;99528.63;;;15.56;53.10
18988;BME280;5494;51.796;10.952;2023-05-24T10:03:11;99526.16;;;15.81;52.66
18988;BME280;5494;51.796;10.952;2023-05-24T10:05:43;99525.59;;;16.17;52.34
18988;BME280;5494;51.796;10.952;2023-05-24T10:08:12;99528.41;;;16.53;51.73
18988;BME280;5494;51.796;10.952;2023-05-24T10:10:41;99532.56;;;16.70;51.54
18988;BME280;5494;51.796;10.952;2023-05-24T10:13:11;99530.19;;;16.53;51.25
18988;BME280;5494;51.796;10.952;2023-05-24T10:15:43;99529.56;;;16.49;52.21
18988;BME280;5494;51.796;10.952;2023-05-24T10:18:11;99527.47;;;16.54;53.02
18988;BME280;5494;51.796;10.952;2023-05-24T10:20:40;99533.56;;;16.55;53.94
18988;BME280;5494;51.796;10.952;2023-05-24T10:23:10;99531.41;;;16.35;53.81
18988;BME280;5494;51.796;10.952;2023-05-24T10:25:53;99536.34;;;16.39;53.54
18988;BME280;5494;51.796;10.952;2023-05-24T10:28:23;99528.97;;;16.05;55.01
18988;BME280;5494;51.796;10.952;2023-05-24T10:31:03;99532.56;;;16.04;56.26
18988;BME280;5494;51.796;10.952;2023-05-24T10:33:36;99537.63;;;15.93;54.11
18988;BME280;5494;51.796;10.952;2023-05-24T10:36:07;99530.56;;;16.07;52.87
18988;BME280;5494;51.796;10.952;2023-05-24T10:38:37;99533.94;;;16.09;52.02
18988;BME280;5494;51.796;10.952;2023-05-24T10:41:07;99530.56;;;16.07;50.17
18988;BME280;5494;51.796;10.952;2023-05-24T10:43:36;99530.31;;;15.98;49.85
18988;BME280;5494;51.796;10.952;2023-05-24T10:46:08;99532.31;;;15.94;51.83
18988;BME280;5494;51.796;10.952;2023-05-24T10:48:39;99540.47;;;15.90;53.00
18988;BME280;5494;51.796;10.952;2023-05-24T10:51:32;99540.38;;;15.77;53.92
18988;BME280;5494;51.796;10.952;2023-05-24T10:54:18;99545.16;;;15.42;55.82
18988;BME280;5494;51.796;10.952;2023-05-24T10:56:49;99552.66;;;15.34;57.60
18988;BME280;5494;51.796;10.952;2023-05-24T10:59:33;99561.34;;;15.06;59.17
18988;BME280;5494;51.796;10.952;2023-05-24T11:02:06;99556.97;;;15.21;59.08
18988;BME280;5494;51.796;10.952;2023-05-24T11:04:41;99567.97;;;15.12;57.79
18988;BME280;5494;51.796;10.952;2023-05-24T11:07:10;99562.81;;;14.96;58.62
18988;BME280;5494;51.796;10.952;2023-05-24T11:09:41;99566.97;;;15.14;59.08
18988;BME280;5494;51.796;10.952;2023-05-24T11:12:14;99569.47;;;15.16;59.23
18988;BME280;5494;51.796;10.952;2023-05-24T11:14:47;99565.75;;;15.20;58.44
18988;BME280;5494;51.796;10.952;2023-05-24T11:17:19;99559.94;;;15.43;57.63
18988;BME280;5494;51.796;10.952;2023-05-24T11:19:51;99569.09;;;15.36;56.92
18988;BME280;5494;51.796;10.952;2023-05-24T11:22:22;99558.63;;;15.50;56.41
18988;BME280;5494;51.796;10.952;2023-05-24T11:24:51;99559.97;;;15.57;56.62
18988;BME280;5494;51.796;10.952;2023-05-24T11:27:20;99555.09;;;15.80;56.74
18988;BME280;5494;51.796;10.952;2023-05-24T11:29:48;99558.81;;;15.90;55.98
18988;BME280;5494;51.796;10.952;2023-05-24T11:32:19;99556.81;;;16.07;55.34
18988;BME280;5494;51.796;10.952;2023-05-24T11:34:49;99548.34;;;15.90;55.92
18988;BME280;5494;51.796;10.952;2023-05-24T11:37:18;99549.28;;;15.89;57.26
18988;BME280;5494;51.796;10.952;2023-05-24T11:39:57;99549.91;;;15.92;58.87
18988;BME280;5494;51.796;10.952;2023-05-24T11:42:27;99547.91;;;16.10;57.45
18988;BME280;5494;51.796;10.952;2023-05-24T11:44:55;99543.28;;;16.67;54.42
18988;BME280;5494;51.796;10.952;2023-05-24T11:47:25;99538.78;;;16.82;54.38
18988;BME280;5494;51.796;10.952;2023-05-24T11:49:53;99539.53;;;16.84;49.01
18988;BME280;5494;51.796;10.952;2023-05-24T11:52:21;99539.13;;;16.90;49.52
18988;BME280;5494;51.796;10.952;2023-05-24T11:54:49;99547.00;;;17.15;50.02
18988;BME280;5494;51.796;10.952;2023-05-24T11:57:23;99542.28;;;17.08;50.31
18988;BME280;5494;51.796;10.952;2023-05-24T11:59:53;99544.50;;;17.14;49.87
18988;BME280;5494;51.796;10.952;2023-05-24T12:02:22;99538.38;;;17.39;49.59
18988;BME280;5494;51.796;10.952;2023-05-24T12:04:52;99531.53;;;17.61;48.85
18988;BME280;5494;51.796;10.952;2023-05-24T12:07:22;99545.59;;;17.60;45.42
18988;BME280;5494;51.796;10.952;2023-05-24T12:09:50;99533.19;;;17.50;45.30
18988;BME280;5494;51.796;10.952;2023-05-24T12:12:20;99531.13;;;17.17;49.34
18988;BME280;5494;51.796;10.952;2023-05-24T12:14:59;99536.81;;;17.49;47.34
18988;BME280;5494;51.796;10.952;2023-05-24T12:17:28;99546.06;;;17.42;49.66
18988;BME280;5494;51.796;10.952;2023-05-24T12:20:02;99546.78;;;17.31;51.12
18988;BME280;5494;51.796;10.952;2023-05-24T12:22:32;99548.25;;;17.10;52.09
18988;BME280;5494;51.796;10.952;2023-05-24T12:25:02;99554.88;;;17.15;49.08
18988;BME280;5494;51.796;10.952;2023-05-24T12:27:31;99555.72;;;17.03;49.87
18988;BME280;5494;51.796;10.952;2023-05-24T12:30:06;99555.19;;;17.11;50.97
18988;BME280;5494;51.796;10.952;2023-05-24T12:32:35;99554.59;;;17.07;52.21
18988;BME280;5494;51.796;10.952;2023-05-24T12:35:06;99552.06;;;17.06;52.86
18988;BME280;5494;51.796;10.952;2023-05-24T12:37:35;99553.09;;;17.16;52.46
18988;BME280;5494;51.796;10.952;2023-05-24T12:40:13;99555.94;;;17.25;50.36
18988;BME280;5494;51.796;10.952;2023-05-24T12:42:43;99550.56;;;17.40;50.61
18988;BME280;5494;51.796;10.952;2023-05-24T12:45:12;99560.69;;;17.33;50.27
18988;BME280;5494;51.796;10.952;2023-05-24T12:47:40;99549.63;;;17.41;51.54
18988;BME280;5494;51.796;10.952;2023-05-24T12:50:10;99547.94;;;17.40;53.15
18988;BME280;5494;51.796;10.952;2023-05-24T12:52:38;99561.72;;;17.18;54.06
18988;BME280;5494;51.796;10.952;2023-05-24T12:55:07;99557.47;;;17.79;53.50
18988;BME280;5494;51.796;10.952;2023-05-24T12:57:35;99555.38;;;17.84;52.12
18988;BME280;5494;51.796;10.952;2023-05-24T13:00:05;99545.25;;;17.90;49.75
18988;BME280;5494;51.796;10.952;2023-05-24T13:02:34;99550.25;;;18.06;49.61
18988;BME280;5494;51.796;10.952;2023-05-24T13:05:07;99548.34;;;18.08;50.11
18988;BME280;5494;51.796;10.952;2023-05-24T13:07:37;99547.78;;;18.16;49.47
18988;BME280;5494;51.796;10.952;2023-05-24T13:10:07;99543.81;;;18.10;48.68
18988;BME280;5494;51.796;10.952;2023-05-24T13:12:35;99543.88;;;17.97;48.63
18988;BME280;5494;51.796;10.952;2023-05-24T13:15:04;99542.09;;;17.85;49.83